sensor_id;sensor_type;location;lat;lon;timestamp;P1;durP1;ratioP1;P2;durP2;ratioP2
10586;SDS011;5341;47.606;7.576;2022-07-29T00:00:20;5.65;;;3.13;;
10586;SDS011;5341;47.606;7.576;2022-07-29T00:02:48;4.32;;;3.42;;
10586;SDS011;5341;47.606;7.576;2022-07-29T00:05:16;5.00;;;3.42;;
10586;SDS011;5341;47.606;7.576;2022-07-29T00:07:43;5.05;;;3.55;;
10586;SDS011;5341;47.606;7.576;2022-07-29T00:10:11;5.63;;;3.72;;
10586;SDS011;5341;47.606;7.576;2022-07-29T00:12:39;5.30;;;3.10;;
10586;SDS011;5341;47.606;7.576;2022-07-29T00:15:09;3.47;;;3.10;;
10586;SDS011;5341;47.606;7.576;2022-07-29T00:17:37;3.50;;;3.13;;
10586;SDS011;5341;47.606;7.576;2022-07-29T00:20:05;4.00;;;3.33;;
10586;SDS011;5341;47.606;7.576;2022-07-29T00:22:36;4.30;;;2.90;;
10586;SDS011;5341;47.606;7.576;2022-07-29T00:25:04;5.25;;;3.38;;
10586;SDS011;5341;47.606;7.576;2022-07-29T00:27:33;4.47;;;3.50;;
10586;SDS011;5341;47.606;7.576;2022-07-29T00:30:00;3.72;;;3.38;;
10586;SDS011;5341;47.606;7.576;2022-07-29T00:32:30;6.32;;;3.20;;
10586;SDS011;5341;47.606;7.576;2022-07-29T00:34:58;4.47;;;3.10;;
10586;SDS011;5341;47.606;7.576;2022-07-29T00:37:43;6.25;;;3.30;;
10586;SDS011;5341;47.606;7.576;2022-07-29T00:40:11;3.58;;;3.10;;
10586;SDS011;5341;47.606;7.576;2022-07-29T00:42:42;4.32;;;3.13;;
10586;SDS011;5341;47.606;7.576;2022-07-29T00:45:10;4.30;;;3.55;;
10586;SDS011;5341;47.606;7.576;2022-07-29T00:47:41;4.60;;;3.28;;
10586;SDS011;5341;47.606;7.576;2022-07-29T00:50:11;4.63;;;3.08;;
10586;SDS011;5341;47.606;7.576;2022-07-29T00:52:40;5.43;;;3.13;;
10586;SDS011;5341;47.606;7.576;2022-07-29T00:55:10;5.03;;;3.33;;
10586;SDS011;5341;47.606;7.576;2022-07-29T00:57:39;4.07;;;3.28;;
10586;SDS011;5341;47.606;7.576;2022-07-29T01:00:08;4.75;;;3.00;;
10586;SDS011;5341;47.606;7.576;2022-07-29T01:02:38;4.57;;;3.38;;
10586;SDS011;5341;47.606;7.576;2022-07-29T01:05:07;4.78;;;3.00;;
10586;SDS011;5341;47.606;7.576;2022-07-29T01:07:35;5.38;;;3.40;;
10586;SDS011;5341;47.606;7.576;2022-07-29T01:10:03;4.25;;;3.25;;
10586;SDS011;5341;47.606;7.576;2022-07-29T01:12:33;3.88;;;3.13;;
10586;SDS011;5341;47.606;7.576;2022-07-29T01:15:04;3.75;;;3.35;;
10586;SDS011;5341;47.606;7.576;2022-07-29T01:17:36;4.75;;;3.47;;
10586;SDS011;5341;47.606;7.576;2022-07-29T01:20:12;4.30;;;3.75;;
10586;SDS011;5341;47.606;7.576;2022-07-29T01:25:46;4.28;;;3.53;;
10586;SDS011;5341;47.606;7.576;2022-07-29T01:28:40;4.13;;;3.22;;
10586;SDS011;5341;47.606;7.576;2022-07-29T01:31:27;5.22;;;3.30;;
10586;SDS011;5341;47.606;7.576;2022-07-29T01:34:01;5.72;;;3.50;;
10586;SDS011;5341;47.606;7.576;2022-07-29T01:36:33;3.60;;;3.17;;
10586;SDS011;5341;47.606;7.576;2022-07-29T01:39:05;5.78;;;3.55;;
10586;SDS011;5341;47.606;7.576;2022-07-29T01:41:36;4.65;;;3.30;;
10586;SDS011;5341;47.606;7.576;2022-07-29T01:44:11;3.63;;;3.33;;
10586;SDS011;5341;47.606;7.576;2022-07-29T01:46:44;4.05;;;3.08;;
10586;SDS011;5341;47.606;7.576;2022-07-29T01:49:20;4.75;;;3.30;;
10586;SDS011;5341;47.606;7.576;2022-07-29T01:51:51;4.72;;;3.20;;
10586;SDS011;5341;47.606;7.576;2022-07-29T01:54:24;4.35;;;3.50;;
10586;SDS011;5341;47.606;7.576;2022-07-29T01:56:57;4.20;;;3.30;;
10586;SDS011;5341;47.606;7.576;2022-07-29T01:59:28;3.75;;;3.25;;
10586;SDS011;5341;47.606;7.576;2022-07-29T02:01:57;5.72;;;3.38;;
10586;SDS011;5341;47.606;7.576;2022-07-29T02:04:26;5.15;;;3.70;;
10586;SDS011;5341;47.606;7.576;2022-07-29T02:06:57;5.75;;;3.20;;
10586;SDS011;5341;47.606;7.576;2022-07-29T02:09:28;4.18;;;3.20;;
10586;SDS011;5341;47.606;7.576;2022-07-29T02:11:58;3.65;;;3.22;;
10586;SDS011;5341;47.606;7.576;2022-07-29T02:14:30;3.78;;;3.15;;
10586;SDS011;5341;47.606;7.576;2022-07-29T02:17:01;3.55;;;2.92;;
10586;SDS011;5341;47.606;7.576;2022-07-29T02:19:29;4.60;;;3.40;;
10586;SDS011;5341;47.606;7.576;2022-07-29T02:21:59;3.40;;;3.10;;
10586;SDS011;5341;47.606;7.576;2022-07-29T02:24:39;4.63;;;3.17;;
10586;SDS011;5341;47.606;7.576;2022-07-29T02:27:08;3.45;;;3.10;;
10586;SDS011;5341;47.606;7.576;2022-07-29T02:29:38;6.07;;;3.35;;
10586;SDS011;5341;47.606;7.576;2022-07-29T02:32:07;5.47;;;3.15;;
10586;SDS011;5341;47.606;7.576;2022-07-29T02:34:39;4.35;;;3.17;;
10586;SDS011;5341;47.606;7.576;2022-07-29T02:37:08;4.32;;;3.75;;
10586;SDS011;5341;47.606;7.576;2022-07-29T02:39:37;3.70;;;3.38;;
10586;SDS011;5341;47.606;7.576;2022-07-29T02:42:08;3.78;;;3.20;;
10586;SDS011;5341;47.606;7.576;2022-07-29T02:44:41;3.95;;;3.22;;
10586;SDS011;5341;47.606;7.576;2022-07-29T02:47:10;3.25;;;2.80;;
10586;SDS011;5341;47.606;7.576;2022-07-29T02:49:47;4.13;;;3.15;;
10586;SDS011;5341;47.606;7.576;2022-07-29T02:52:20;4.63;;;3.50;;
10586;SDS011;5341;47.606;7.576;2022-07-29T02:54:51;4.82;;;3.40;;
10586;SDS011;5341;47.606;7.576;2022-07-29T02:57:25;6.00;;;3.40;;
10586;SDS011;5341;47.606;7.576;2022-07-29T03:00:01;5.22;;;3.38;;
10586;SDS011;5341;47.606;7.576;2022-07-29T03:02:32;3.85;;;3.13;;
10586;SDS011;5341;47.606;7.576;2022-07-29T03:05:02;5.15;;;3.40;;
10586;SDS011;5341;47.606;7.576;2022-07-29T03:07:32;3.92;;;3.13;;
10586;SDS011;5341;47.606;7.576;2022-07-29T03:10:02;3.95;;;3.05;;
10586;SDS011;5341;47.606;7.576;2022-07-29T03:12:31;5.32;;;3.60;;
10586;SDS011;5341;47.606;7.576;2022-07-29T03:15:01;5.35;;;3.78;;
10586;SDS011;5341;47.606;7.576;2022-07-29T03:17:29;4.65;;;3.42;;
10586;SDS011;5341;47.606;7.576;2022-07-29T03:19:58;4.70;;;3.60;;
10586;SDS011;5341;47.606;7.576;2022-07-29T03:22:26;3.55;;;3.22;;
10586;SDS011;5341;47.606;7.576;2022-07-29T03:24:54;3.50;;;3.20;;
10586;SDS011;5341;47.606;7.576;2022-07-29T03:27:22;5.40;;;3.53;;
10586;SDS011;5341;47.606;7.576;2022-07-29T03:29:50;5.18;;;3.30;;
10586;SDS011;5341;47.606;7.576;2022-07-29T03:32:19;6.30;;;3.22;;
10586;SDS011;5341;47.606;7.576;2022-07-29T03:34:46;3.60;;;3.30;;
10586;SDS011;5341;47.606;7.576;2022-07-29T03:37:14;3.55;;;3.25;;
10586;SDS011;5341;47.606;7.576;2022-07-29T03:39:41;4.22;;;3.22;;
10586;SDS011;5341;47.606;7.576;2022-07-29T03:42:11;3.97;;;3.15;;
10586;SDS011;5341;47.606;7.576;2022-07-29T03:44:42;3.92;;;3.53;;
10586;SDS011;5341;47.606;7.576;2022-07-29T03:47:12;3.55;;;3.25;;
10586;SDS011;5341;47.606;7.576;2022-07-29T03:49:44;4.95;;;3.33;;
10586;SDS011;5341;47.606;7.576;2022-07-29T03:52:15;5.60;;;3.63;;
10586;SDS011;5341;47.606;7.576;2022-07-29T03:54:43;3.53;;;3.22;;
10586;SDS011;5341;47.606;7.576;2022-07-29T03:57:11;3.88;;;3.38;;
10586;SDS011;5341;47.606;7.576;2022-07-29T03:59:40;4.18;;;3.08;;
10586;SDS011;5341;47.606;7.576;2022-07-29T04:02:10;5.38;;;3.20;;
10586;SDS011;5341;47.606;7.576;2022-07-29T04:04:39;4.35;;;3.22;;
10586;SDS011;5341;47.606;7.576;2022-07-29T04:07:08;3.75;;;3.15;;
10586;SDS011;5341;47.606;7.576;2022-07-29T04:09:39;4.82;;;3.22;;
10586;SDS011;5341;47.606;7.576;2022-07-29T04:12:07;5.78;;;3.33;;
10586;SDS011;5341;47.606;7.576;2022-07-29T04:14:35;5.22;;;3.25;;
10586;SDS011;5341;47.606;7.576;2022-07-29T04:17:04;4.90;;;3.47;;
10586;SDS011;5341;47.606;7.576;2022-07-29T04:19:32;5.18;;;3.30;;
10586;SDS011;5341;47.606;7.576;2022-07-29T04:22:00;3.85;;;3.22;;
10586;SDS011;5341;47.606;7.576;2022-07-29T04:24:30;4.93;;;3.20;;
10586;SDS011;5341;47.606;7.576;2022-07-29T04:26:57;3.58;;;2.92;;
10586;SDS011;5341;47.606;7.576;2022-07-29T04:29:25;5.00;;;3.10;;
10586;SDS011;5341;47.606;7.576;2022-07-29T04:31:53;4.30;;;3.35;;
10586;SDS011;5341;47.606;7.576;2022-07-29T04:34:21;3.60;;;3.30;;
10586;SDS011;5341;47.606;7.576;2022-07-29T04:36:48;4.75;;;3.30;;
10586;SDS011;5341;47.606;7.576;2022-07-29T04:39:16;4.93;;;3.50;;
10586;SDS011;5341;47.606;7.576;2022-07-29T04:41:45;5.35;;;2.97;;
10586;SDS011;5341;47.606;7.576;2022-07-29T04:44:13;3.47;;;3.08;;
10586;SDS011;5341;47.606;7.576;2022-07-29T04:46:40;4.60;;;3.35;;
10586;SDS011;5341;47.606;7.576;2022-07-29T04:49:08;4.25;;;3.50;;
10586;SDS011;5341;47.606;7.576;2022-07-29T04:51:35;4.25;;;2.97;;
10586;SDS011;5341;47.606;7.576;2022-07-29T04:54:03;4.82;;;3.15;;
10586;SDS011;5341;47.606;7.576;2022-07-29T04:56:31;4.97;;;3.28;;
10586;SDS011;5341;47.606;7.576;2022-07-29T04:59:00;5.38;;;3.20;;
10586;SDS011;5341;47.606;7.576;2022-07-29T05:01:28;3.40;;;3.10;;
10586;SDS011;5341;47.606;7.576;2022-07-29T05:03:55;4.32;;;3.20;;
10586;SDS011;5341;47.606;7.576;2022-07-29T05:06:24;3.97;;;3.10;;
10586;SDS011;5341;47.606;7.576;2022-07-29T05:08:51;4.00;;;3.25;;
10586;SDS011;5341;47.606;7.576;2022-07-29T05:11:19;3.60;;;3.17;;
10586;SDS011;5341;47.606;7.576;2022-07-29T05:13:47;4.40;;;3.05;;
10586;SDS011;5341;47.606;7.576;2022-07-29T05:16:16;5.60;;;3.38;;
10586;SDS011;5341;47.606;7.576;2022-07-29T05:18:44;3.72;;;3.17;;
10586;SDS011;5341;47.606;7.576;2022-07-29T05:21:12;3.55;;;3.00;;
10586;SDS011;5341;47.606;7.576;2022-07-29T05:23:39;5.05;;;3.30;;
10586;SDS011;5341;47.606;7.576;2022-07-29T05:26:07;3.92;;;3.45;;
10586;SDS011;5341;47.606;7.576;2022-07-29T05:28:35;4.78;;;3.25;;
10586;SDS011;5341;47.606;7.576;2022-07-29T05:31:03;5.20;;;3.05;;
10586;SDS011;5341;47.606;7.576;2022-07-29T05:33:32;4.20;;;3.25;;
10586;SDS011;5341;47.606;7.576;2022-07-29T05:36:00;4.43;;;3.20;;
10586;SDS011;5341;47.606;7.576;2022-07-29T05:38:28;5.30;;;3.25;;
10586;SDS011;5341;47.606;7.576;2022-07-29T05:40:56;3.47;;;3.17;;
10586;SDS011;5341;47.606;7.576;2022-07-29T05:43:25;4.63;;;3.22;;
10586;SDS011;5341;47.606;7.576;2022-07-29T05:45:53;3.88;;;3.20;;
10586;SDS011;5341;47.606;7.576;2022-07-29T05:48:21;3.83;;;3.40;;
10586;SDS011;5341;47.606;7.576;2022-07-29T05:50:50;4.65;;;3.70;;
10586;SDS011;5341;47.606;7.576;2022-07-29T05:53:18;5.00;;;3.70;;
10586;SDS011;5341;47.606;7.576;2022-07-29T05:55:46;5.25;;;3.72;;
10586;SDS011;5341;47.606;7.576;2022-07-29T05:58:14;4.20;;;3.78;;
10586;SDS011;5341;47.606;7.576;2022-07-29T06:00:41;5.60;;;4.30;;
10586;SDS011;5341;47.606;7.576;2022-07-29T06:03:09;6.53;;;4.07;;
10586;SDS011;5341;47.606;7.576;2022-07-29T06:05:36;9.38;;;4.20;;
10586;SDS011;5341;47.606;7.576;2022-07-29T06:08:06;5.50;;;4.20;;
10586;SDS011;5341;47.606;7.576;2022-07-29T06:10:34;6.60;;;4.18;;
10586;SDS011;5341;47.606;7.576;2022-07-29T06:13:02;7.30;;;4.50;;
10586;SDS011;5341;47.606;7.576;2022-07-29T06:15:30;5.65;;;4.40;;
10586;SDS011;5341;47.606;7.576;2022-07-29T06:17:58;7.55;;;4.38;;
10586;SDS011;5341;47.606;7.576;2022-07-29T06:20:25;5.22;;;3.85;;
10586;SDS011;5341;47.606;7.576;2022-07-29T06:22:55;5.82;;;4.05;;
10586;SDS011;5341;47.606;7.576;2022-07-29T06:25:24;7.55;;;4.40;;
10586;SDS011;5341;47.606;7.576;2022-07-29T06:27:52;5.20;;;4.07;;
10586;SDS011;5341;47.606;7.576;2022-07-29T06:30:19;6.97;;;4.10;;
10586;SDS011;5341;47.606;7.576;2022-07-29T06:32:48;8.45;;;4.78;;
10586;SDS011;5341;47.606;7.576;2022-07-29T06:35:16;6.07;;;4.40;;
10586;SDS011;5341;47.606;7.576;2022-07-29T06:37:43;8.32;;;4.90;;
10586;SDS011;5341;47.606;7.576;2022-07-29T06:40:11;5.88;;;4.18;;
10586;SDS011;5341;47.606;7.576;2022-07-29T06:42:57;10.40;;;4.53;;
10586;SDS011;5341;47.606;7.576;2022-07-29T06:45:25;7.75;;;4.55;;
10586;SDS011;5341;47.606;7.576;2022-07-29T06:47:53;5.60;;;4.80;;
10586;SDS011;5341;47.606;7.576;2022-07-29T06:50:20;5.70;;;3.80;;
10586;SDS011;5341;47.606;7.576;2022-07-29T06:52:48;6.65;;;4.30;;
10586;SDS011;5341;47.606;7.576;2022-07-29T06:55:15;6.65;;;4.63;;
10586;SDS011;5341;47.606;7.576;2022-07-29T06:57:44;8.85;;;4.68;;
10586;SDS011;5341;47.606;7.576;2022-07-29T07:00:14;6.18;;;4.53;;
10586;SDS011;5341;47.606;7.576;2022-07-29T07:02:42;5.85;;;4.18;;
10586;SDS011;5341;47.606;7.576;2022-07-29T07:05:10;6.90;;;4.38;;
10586;SDS011;5341;47.606;7.576;2022-07-29T07:07:37;6.70;;;4.10;;
10586;SDS011;5341;47.606;7.576;2022-07-29T07:10:05;7.22;;;3.83;;
10586;SDS011;5341;47.606;7.576;2022-07-29T07:12:33;6.50;;;3.53;;
10586;SDS011;5341;47.606;7.576;2022-07-29T07:15:01;4.60;;;3.90;;
10586;SDS011;5341;47.606;7.576;2022-07-29T07:17:30;5.68;;;3.58;;
10586;SDS011;5341;47.606;7.576;2022-07-29T07:19:57;6.07;;;3.40;;
10586;SDS011;5341;47.606;7.576;2022-07-29T07:22:25;5.93;;;3.47;;
10586;SDS011;5341;47.606;7.576;2022-07-29T07:24:52;5.68;;;3.40;;
10586;SDS011;5341;47.606;7.576;2022-07-29T07:27:20;7.47;;;3.22;;
10586;SDS011;5341;47.606;7.576;2022-07-29T07:29:48;4.55;;;3.25;;
10586;SDS011;5341;47.606;7.576;2022-07-29T07:32:15;4.15;;;3.35;;
10586;SDS011;5341;47.606;7.576;2022-07-29T07:34:44;3.25;;;2.92;;
10586;SDS011;5341;47.606;7.576;2022-07-29T07:37:12;5.10;;;3.40;;
10586;SDS011;5341;47.606;7.576;2022-07-29T07:39:39;4.53;;;3.10;;
10586;SDS011;5341;47.606;7.576;2022-07-29T07:42:07;3.72;;;3.30;;
10586;SDS011;5341;47.606;7.576;2022-07-29T07:44:36;6.85;;;3.60;;
10586;SDS011;5341;47.606;7.576;2022-07-29T07:47:04;3.78;;;3.28;;
10586;SDS011;5341;47.606;7.576;2022-07-29T07:49:32;6.70;;;3.30;;
10586;SDS011;5341;47.606;7.576;2022-07-29T07:52:01;4.00;;;3.40;;
10586;SDS011;5341;47.606;7.576;2022-07-29T07:54:28;4.78;;;3.30;;
10586;SDS011;5341;47.606;7.576;2022-07-29T07:56:56;4.03;;;3.50;;
10586;SDS011;5341;47.606;7.576;2022-07-29T07:59:26;5.93;;;3.20;;
10586;SDS011;5341;47.606;7.576;2022-07-29T08:01:54;6.15;;;3.53;;
10586;SDS011;5341;47.606;7.576;2022-07-29T08:04:21;6.60;;;3.67;;
10586;SDS011;5341;47.606;7.576;2022-07-29T08:06:50;5.43;;;3.70;;
10586;SDS011;5341;47.606;7.576;2022-07-29T08:09:21;5.65;;;3.55;;
10586;SDS011;5341;47.606;7.576;2022-07-29T08:11:49;5.72;;;4.13;;
10586;SDS011;5341;47.606;7.576;2022-07-29T08:14:17;5.05;;;3.53;;
10586;SDS011;5341;47.606;7.576;2022-07-29T08:16:46;4.88;;;3.88;;
10586;SDS011;5341;47.606;7.576;2022-07-29T08:19:14;4.00;;;3.60;;
10586;SDS011;5341;47.606;7.576;2022-07-29T08:21:42;6.82;;;4.20;;
10586;SDS011;5341;47.606;7.576;2022-07-29T08:24:10;7.75;;;4.25;;
10586;SDS011;5341;47.606;7.576;2022-07-29T08:26:57;17.73;;;4.68;;
10586;SDS011;5341;47.606;7.576;2022-07-29T08:29:25;6.90;;;3.88;;
10586;SDS011;5341;47.606;7.576;2022-07-29T08:31:54;5.03;;;4.10;;
10586;SDS011;5341;47.606;7.576;2022-07-29T08:34:22;6.45;;;4.00;;
10586;SDS011;5341;47.606;7.576;2022-07-29T08:36:50;6.38;;;4.05;;
10586;SDS011;5341;47.606;7.576;2022-07-29T08:39:18;5.10;;;3.80;;
10586;SDS011;5341;47.606;7.576;2022-07-29T08:41:48;4.63;;;3.83;;
10586;SDS011;5341;47.606;7.576;2022-07-29T08:44:21;4.65;;;3.17;;
10586;SDS011;5341;47.606;7.576;2022-07-29T08:46:53;5.35;;;3.22;;
10586;SDS011;5341;47.606;7.576;2022-07-29T08:49:22;4.30;;;2.90;;
10586;SDS011;5341;47.606;7.576;2022-07-29T08:51:54;6.05;;;2.90;;
10586;SDS011;5341;47.606;7.576;2022-07-29T08:54:24;3.28;;;2.90;;
10586;SDS011;5341;47.606;7.576;2022-07-29T08:56:53;3.13;;;2.53;;
10586;SDS011;5341;47.606;7.576;2022-07-29T08:59:26;3.75;;;2.40;;
10586;SDS011;5341;47.606;7.576;2022-07-29T09:01:55;4.97;;;3.17;;
10586;SDS011;5341;47.606;7.576;2022-07-29T09:04:27;6.65;;;3.33;;
10586;SDS011;5341;47.606;7.576;2022-07-29T09:07:01;8.07;;;3.78;;
10586;SDS011;5341;47.606;7.576;2022-07-29T09:09:33;4.13;;;2.88;;
10586;SDS011;5341;47.606;7.576;2022-07-29T09:12:00;4.90;;;3.13;;
10586;SDS011;5341;47.606;7.576;2022-07-29T09:14:31;4.95;;;2.83;;
10586;SDS011;5341;47.606;7.576;2022-07-29T09:16:58;4.47;;;2.53;;
10586;SDS011;5341;47.606;7.576;2022-07-29T09:19:27;4.20;;;2.95;;
10586;SDS011;5341;47.606;7.576;2022-07-29T09:21:57;6.07;;;2.63;;
10586;SDS011;5341;47.606;7.576;2022-07-29T09:24:26;3.97;;;2.50;;
10586;SDS011;5341;47.606;7.576;2022-07-29T09:27:09;3.65;;;2.78;;
10586;SDS011;5341;47.606;7.576;2022-07-29T09:29:40;3.50;;;2.22;;
10586;SDS011;5341;47.606;7.576;2022-07-29T09:32:08;5.07;;;2.30;;
10586;SDS011;5341;47.606;7.576;2022-07-29T09:34:37;5.22;;;2.40;;
10586;SDS011;5341;47.606;7.576;2022-07-29T09:37:05;2.40;;;2.20;;
10586;SDS011;5341;47.606;7.576;2022-07-29T09:39:35;3.78;;;2.28;;
10586;SDS011;5341;47.606;7.576;2022-07-29T09:42:11;2.92;;;2.40;;
10586;SDS011;5341;47.606;7.576;2022-07-29T09:44:46;6.50;;;2.53;;
10586;SDS011;5341;47.606;7.576;2022-07-29T09:47:15;3.40;;;2.45;;
10586;SDS011;5341;47.606;7.576;2022-07-29T09:49:50;4.07;;;2.50;;
10586;SDS011;5341;47.606;7.576;2022-07-29T09:52:19;3.15;;;2.40;;
10586;SDS011;5341;47.606;7.576;2022-07-29T09:54:47;6.90;;;2.58;;
10586;SDS011;5341;47.606;7.576;2022-07-29T09:57:24;3.97;;;2.35;;
10586;SDS011;5341;47.606;7.576;2022-07-29T09:59:58;4.05;;;2.40;;
10586;SDS011;5341;47.606;7.576;2022-07-29T10:02:39;8.90;;;2.78;;
10586;SDS011;5341;47.606;7.576;2022-07-29T10:05:16;3.67;;;2.20;;
10586;SDS011;5341;47.606;7.576;2022-07-29T10:07:47;5.55;;;2.80;;
10586;SDS011;5341;47.606;7.576;2022-07-29T10:10:19;3.28;;;2.10;;
10586;SDS011;5341;47.606;7.576;2022-07-29T10:12:50;5.95;;;2.70;;
10586;SDS011;5341;47.606;7.576;2022-07-29T10:15:22;4.07;;;2.45;;
10586;SDS011;5341;47.606;7.576;2022-07-29T10:17:53;2.72;;;2.15;;
10586;SDS011;5341;47.606;7.576;2022-07-29T10:20:22;4.97;;;2.33;;
10586;SDS011;5341;47.606;7.576;2022-07-29T10:22:53;3.72;;;2.35;;
10586;SDS011;5341;47.606;7.576;2022-07-29T10:25:22;2.67;;;2.30;;
10586;SDS011;5341;47.606;7.576;2022-07-29T10:27:51;3.75;;;2.50;;
10586;SDS011;5341;47.606;7.576;2022-07-29T10:30:19;4.05;;;2.38;;
10586;SDS011;5341;47.606;7.576;2022-07-29T10:32:56;4.10;;;2.03;;
10586;SDS011;5341;47.606;7.576;2022-07-29T10:35:42;3.55;;;2.47;;
10586;SDS011;5341;47.606;7.576;2022-07-29T10:38:29;5.78;;;2.33;;
10586;SDS011;5341;47.606;7.576;2022-07-29T10:41:07;3.35;;;2.33;;
10586;SDS011;5341;47.606;7.576;2022-07-29T10:43:58;3.13;;;2.33;;
10586;SDS011;5341;47.606;7.576;2022-07-29T10:46:37;4.38;;;2.03;;
10586;SDS011;5341;47.606;7.576;2022-07-29T10:49:10;3.60;;;2.15;;
10586;SDS011;5341;47.606;7.576;2022-07-29T10:54:37;4.30;;;2.50;;
10586;SDS011;5341;47.606;7.576;2022-07-29T10:57:14;5.78;;;2.40;;
10586;SDS011;5341;47.606;7.576;2022-07-29T10:59:48;3.13;;;2.25;;
10586;SDS011;5341;47.606;7.576;2022-07-29T11:05:11;5.35;;;2.42;;
10586;SDS011;5341;47.606;7.576;2022-07-29T11:10:39;3.97;;;2.15;;
10586;SDS011;5341;47.606;7.576;2022-07-29T11:13:06;2.92;;;2.45;;
10586;SDS011;5341;47.606;7.576;2022-07-29T11:18:22;4.20;;;2.20;;
10586;SDS011;5341;47.606;7.576;2022-07-29T11:20:50;6.10;;;2.28;;
10586;SDS011;5341;47.606;7.576;2022-07-29T11:23:23;4.80;;;2.28;;
10586;SDS011;5341;47.606;7.576;2022-07-29T11:28:49;8.00;;;2.80;;
10586;SDS011;5341;47.606;7.576;2022-07-29T11:31:19;7.82;;;3.80;;
10586;SDS011;5341;47.606;7.576;2022-07-29T11:39:44;3.65;;;2.35;;
10586;SDS011;5341;47.606;7.576;2022-07-29T11:45:10;4.68;;;2.00;;
10586;SDS011;5341;47.606;7.576;2022-07-29T11:47:40;4.80;;;2.22;;
10586;SDS011;5341;47.606;7.576;2022-07-29T11:50:15;5.63;;;2.10;;
10586;SDS011;5341;47.606;7.576;2022-07-29T11:52:44;3.67;;;2.90;;
10586;SDS011;5341;47.606;7.576;2022-07-29T11:55:14;3.53;;;2.30;;
10586;SDS011;5341;47.606;7.576;2022-07-29T11:57:47;5.95;;;2.95;;
10586;SDS011;5341;47.606;7.576;2022-07-29T12:00:25;4.63;;;2.30;;
10586;SDS011;5341;47.606;7.576;2022-07-29T12:02:55;5.32;;;2.50;;
10586;SDS011;5341;47.606;7.576;2022-07-29T12:05:32;3.10;;;2.22;;
10586;SDS011;5341;47.606;7.576;2022-07-29T12:08:08;3.90;;;2.38;;
10586;SDS011;5341;47.606;7.576;2022-07-29T12:10:40;3.40;;;2.17;;
10586;SDS011;5341;47.606;7.576;2022-07-29T12:13:09;3.65;;;2.20;;
10586;SDS011;5341;47.606;7.576;2022-07-29T12:15:37;3.67;;;2.15;;
10586;SDS011;5341;47.606;7.576;2022-07-29T12:18:14;4.20;;;2.30;;
10586;SDS011;5341;47.606;7.576;2022-07-29T12:20:46;6.03;;;2.35;;
10586;SDS011;5341;47.606;7.576;2022-07-29T12:23:14;3.55;;;2.17;;
10586;SDS011;5341;47.606;7.576;2022-07-29T12:25:43;3.88;;;2.15;;
10586;SDS011;5341;47.606;7.576;2022-07-29T12:28:12;4.57;;;2.50;;
10586;SDS011;5341;47.606;7.576;2022-07-29T12:30:43;3.88;;;2.38;;
10586;SDS011;5341;47.606;7.576;2022-07-29T12:33:19;3.92;;;2.08;;
10586;SDS011;5341;47.606;7.576;2022-07-29T12:35:50;3.97;;;2.20;;
10586;SDS011;5341;47.606;7.576;2022-07-29T12:38:20;5.10;;;2.30;;
10586;SDS011;5341;47.606;7.576;2022-07-29T12:40:48;4.93;;;2.47;;
10586;SDS011;5341;47.606;7.576;2022-07-29T12:43:18;4.53;;;2.20;;
10586;SDS011;5341;47.606;7.576;2022-07-29T12:45:47;2.47;;;2.10;;
10586;SDS011;5341;47.606;7.576;2022-07-29T12:48:17;4.65;;;2.17;;
10586;SDS011;5341;47.606;7.576;2022-07-29T12:51:01;4.10;;;2.20;;
10586;SDS011;5341;47.606;7.576;2022-07-29T12:53:31;5.38;;;2.30;;
10586;SDS011;5341;47.606;7.576;2022-07-29T12:55:59;3.33;;;2.35;;
10586;SDS011;5341;47.606;7.576;2022-07-29T12:58:29;3.28;;;2.25;;
10586;SDS011;5341;47.606;7.576;2022-07-29T13:01:00;4.47;;;2.40;;
10586;SDS011;5341;47.606;7.576;2022-07-29T13:03:43;2.92;;;2.20;;
10586;SDS011;5341;47.606;7.576;2022-07-29T13:09:03;5.28;;;2.58;;
10586;SDS011;5341;47.606;7.576;2022-07-29T13:11:36;3.70;;;2.22;;
10586;SDS011;5341;47.606;7.576;2022-07-29T13:14:07;4.88;;;3.15;;
10586;SDS011;5341;47.606;7.576;2022-07-29T13:16:36;3.67;;;2.70;;
10586;SDS011;5341;47.606;7.576;2022-07-29T13:19:32;3.10;;;2.20;;
10586;SDS011;5341;47.606;7.576;2022-07-29T13:22:03;3.55;;;2.88;;
10586;SDS011;5341;47.606;7.576;2022-07-29T13:24:31;6.00;;;3.80;;
10586;SDS011;5341;47.606;7.576;2022-07-29T13:26:58;3.88;;;2.50;;
10586;SDS011;5341;47.606;7.576;2022-07-29T13:29:26;4.57;;;3.03;;
10586;SDS011;5341;47.606;7.576;2022-07-29T13:31:54;4.57;;;3.08;;
10586;SDS011;5341;47.606;7.576;2022-07-29T13:34:22;5.25;;;3.80;;
10586;SDS011;5341;47.606;7.576;2022-07-29T13:36:49;4.10;;;2.60;;
10586;SDS011;5341;47.606;7.576;2022-07-29T13:39:19;6.70;;;3.00;;
10586;SDS011;5341;47.606;7.576;2022-07-29T13:41:46;3.78;;;1.95;;
10586;SDS011;5341;47.606;7.576;2022-07-29T13:44:14;3.55;;;2.10;;
10586;SDS011;5341;47.606;7.576;2022-07-29T13:46:41;3.17;;;2.00;;
10586;SDS011;5341;47.606;7.576;2022-07-29T13:49:09;2.55;;;2.03;;
10586;SDS011;5341;47.606;7.576;2022-07-29T13:51:37;3.67;;;2.20;;
10586;SDS011;5341;47.606;7.576;2022-07-29T13:54:05;4.45;;;2.10;;
10586;SDS011;5341;47.606;7.576;2022-07-29T13:56:34;3.20;;;2.10;;
10586;SDS011;5341;47.606;7.576;2022-07-29T13:59:02;3.47;;;2.00;;
10586;SDS011;5341;47.606;7.576;2022-07-29T14:01:30;3.95;;;1.88;;
10586;SDS011;5341;47.606;7.576;2022-07-29T14:04:02;4.07;;;2.00;;
10586;SDS011;5341;47.606;7.576;2022-07-29T14:06:29;2.90;;;1.80;;
10586;SDS011;5341;47.606;7.576;2022-07-29T14:08:57;3.47;;;2.08;;
10586;SDS011;5341;47.606;7.576;2022-07-29T14:11:25;3.80;;;2.00;;
10586;SDS011;5341;47.606;7.576;2022-07-29T14:13:54;3.80;;;1.95;;
10586;SDS011;5341;47.606;7.576;2022-07-29T14:16:22;3.08;;;1.80;;
10586;SDS011;5341;47.606;7.576;2022-07-29T14:18:50;3.83;;;2.00;;
10586;SDS011;5341;47.606;7.576;2022-07-29T14:21:18;3.35;;;1.92;;
10586;SDS011;5341;47.606;7.576;2022-07-29T14:23:46;5.78;;;2.00;;
10586;SDS011;5341;47.606;7.576;2022-07-29T14:26:13;3.83;;;1.90;;
10586;SDS011;5341;47.606;7.576;2022-07-29T14:28:41;3.53;;;2.13;;
10586;SDS011;5341;47.606;7.576;2022-07-29T14:31:10;4.75;;;1.90;;
10586;SDS011;5341;47.606;7.576;2022-07-29T14:33:38;2.95;;;1.90;;
10586;SDS011;5341;47.606;7.576;2022-07-29T14:36:06;2.58;;;1.90;;
10586;SDS011;5341;47.606;7.576;2022-07-29T14:38:34;3.35;;;2.05;;
10586;SDS011;5341;47.606;7.576;2022-07-29T14:41:04;4.72;;;2.22;;
10586;SDS011;5341;47.606;7.576;2022-07-29T14:43:32;3.55;;;1.65;;
10586;SDS011;5341;47.606;7.576;2022-07-29T14:46:01;2.28;;;1.88;;
10586;SDS011;5341;47.606;7.576;2022-07-29T14:48:31;4.07;;;2.13;;
10586;SDS011;5341;47.606;7.576;2022-07-29T14:50:59;3.85;;;2.15;;
10586;SDS011;5341;47.606;7.576;2022-07-29T14:53:26;4.07;;;1.70;;
10586;SDS011;5341;47.606;7.576;2022-07-29T14:55:54;2.85;;;1.98;;
10586;SDS011;5341;47.606;7.576;2022-07-29T14:58:21;4.63;;;2.08;;
10586;SDS011;5341;47.606;7.576;2022-07-29T15:00:49;3.28;;;2.00;;
10586;SDS011;5341;47.606;7.576;2022-07-29T15:03:17;4.55;;;1.80;;
10586;SDS011;5341;47.606;7.576;2022-07-29T15:05:48;2.25;;;1.70;;
10586;SDS011;5341;47.606;7.576;2022-07-29T15:08:16;4.00;;;1.70;;
10586;SDS011;5341;47.606;7.576;2022-07-29T15:10:44;3.47;;;1.60;;
10586;SDS011;5341;47.606;7.576;2022-07-29T15:13:12;4.25;;;1.77;;
10586;SDS011;5341;47.606;7.576;2022-07-29T15:15:40;2.95;;;1.73;;
10586;SDS011;5341;47.606;7.576;2022-07-29T15:18:07;3.83;;;1.90;;
10586;SDS011;5341;47.606;7.576;2022-07-29T15:20:36;8.10;;;2.10;;
10586;SDS011;5341;47.606;7.576;2022-07-29T15:23:07;3.63;;;2.00;;
10586;SDS011;5341;47.606;7.576;2022-07-29T15:25:35;4.38;;;1.70;;
10586;SDS011;5341;47.606;7.576;2022-07-29T15:28:03;2.67;;;1.92;;
10586;SDS011;5341;47.606;7.576;2022-07-29T15:30:33;3.60;;;1.85;;
10586;SDS011;5341;47.606;7.576;2022-07-29T15:33:06;4.07;;;1.70;;
10586;SDS011;5341;47.606;7.576;2022-07-29T15:35:34;3.08;;;2.03;;
10586;SDS011;5341;47.606;7.576;2022-07-29T15:38:02;2.90;;;2.00;;
10586;SDS011;5341;47.606;7.576;2022-07-29T15:40:32;3.40;;;1.90;;
10586;SDS011;5341;47.606;7.576;2022-07-29T15:43:01;3.83;;;2.10;;
10586;SDS011;5341;47.606;7.576;2022-07-29T15:45:34;3.22;;;1.92;;